Mc Causland, Iowa
Current Conditions -  °F | °C
As of 3:55 PM on Monday 22 Dec 2014 (Local Time) from KCWI Reporting Station
Overcast Overcast  
Wind Chill: 28°   Ceiling: 400
Heat Index: 36°   Visibility: 2mi
Dew Point: 34°   Wind: 12mph
Humidity: 93%   Direction: 110°ESE
Pressure: 29.62"   Gusts: NA
Location:  41.7451°N, 90.4447°W
Report Text: KCWI 222155Z AUTO 11010KT 2SM OVC004 02/01 A2962 RMK AO1
Loading
Personal Weather Stations






























Interactive Weather Map New forecast layout! Learn more

10-Day Weather Forecast

Advertisements
Track Severe Weather on mobile